sensor_id;sensor_type;location;lat;lon;timestamp;P1;durP1;ratioP1;P2;durP2;ratioP2
76131;SDS011;64877;50.994;13.650;2024-02-26T00:02:05;13.27;;;8.77;;
76131;SDS011;64877;50.994;13.650;2024-02-26T00:04:30;14.27;;;8.80;;
76131;SDS011;64877;50.994;13.650;2024-02-26T00:06:56;17.80;;;10.23;;
76131;SDS011;64877;50.994;13.650;2024-02-26T00:09:21;14.13;;;9.65;;
76131;SDS011;64877;50.994;13.650;2024-02-26T00:11:46;16.40;;;9.40;;
76131;SDS011;64877;50.994;13.650;2024-02-26T00:14:12;20.38;;;10.23;;
76131;SDS011;64877;50.994;13.650;2024-02-26T00:16:42;17.85;;;11.57;;
76131;SDS011;64877;50.994;13.650;2024-02-26T00:19:07;18.83;;;11.13;;
76131;SDS011;64877;50.994;13.650;2024-02-26T00:21:32;20.70;;;11.57;;
76131;SDS011;64877;50.994;13.650;2024-02-26T00:23:58;20.48;;;11.40;;
76131;SDS011;64877;50.994;13.650;2024-02-26T00:26:23;19.77;;;10.73;;
76131;SDS011;64877;50.994;13.650;2024-02-26T00:28:49;21.17;;;10.98;;
76131;SDS011;64877;50.994;13.650;2024-02-26T00:31:14;22.70;;;11.55;;
76131;SDS011;64877;50.994;13.650;2024-02-26T00:33:39;21.80;;;12.25;;
76131;SDS011;64877;50.994;13.650;2024-02-26T00:36:05;21.42;;;11.05;;
76131;SDS011;64877;50.994;13.650;2024-02-26T00:38:31;18.80;;;10.85;;
76131;SDS011;64877;50.994;13.650;2024-02-26T00:40:56;19.52;;;10.85;;
76131;SDS011;64877;50.994;13.650;2024-02-26T00:43:22;21.73;;;11.40;;
76131;SDS011;64877;50.994;13.650;2024-02-26T00:45:47;18.05;;;10.70;;
76131;SDS011;64877;50.994;13.650;2024-02-26T00:48:13;19.02;;;11.07;;
76131;SDS011;64877;50.994;13.650;2024-02-26T00:50:39;17.77;;;9.60;;
76131;SDS011;64877;50.994;13.650;2024-02-26T00:53:05;21.55;;;10.95;;
76131;SDS011;64877;50.994;13.650;2024-02-26T00:55:30;21.20;;;11.45;;
76131;SDS011;64877;50.994;13.650;2024-02-26T00:57:56;16.23;;;9.60;;
76131;SDS011;64877;50.994;13.650;2024-02-26T01:00:21;18.27;;;9.50;;
76131;SDS011;64877;50.994;13.650;2024-02-26T01:02:47;15.98;;;9.80;;
76131;SDS011;64877;50.994;13.650;2024-02-26T01:05:12;16.92;;;9.05;;
76131;SDS011;64877;50.994;13.650;2024-02-26T01:07:39;24.35;;;10.60;;
76131;SDS011;64877;50.994;13.650;2024-02-26T01:10:05;20.42;;;10.60;;
76131;SDS011;64877;50.994;13.650;2024-02-26T01:12:32;18.35;;;10.55;;
76131;SDS011;64877;50.994;13.650;2024-02-26T01:14:58;18.33;;;10.45;;
76131;SDS011;64877;50.994;13.650;2024-02-26T01:17:23;18.38;;;10.32;;
76131;SDS011;64877;50.994;13.650;2024-02-26T01:19:49;19.45;;;9.60;;
76131;SDS011;64877;50.994;13.650;2024-02-26T01:22:14;17.98;;;10.30;;
76131;SDS011;64877;50.994;13.650;2024-02-26T01:24:39;14.75;;;9.27;;
76131;SDS011;64877;50.994;13.650;2024-02-26T01:27:05;15.63;;;9.32;;
76131;SDS011;64877;50.994;13.650;2024-02-26T01:29:31;15.55;;;9.18;;
76131;SDS011;64877;50.994;13.650;2024-02-26T01:31:57;17.77;;;9.98;;
76131;SDS011;64877;50.994;13.650;2024-02-26T01:34:22;16.98;;;9.48;;
76131;SDS011;64877;50.994;13.650;2024-02-26T01:36:47;20.20;;;9.20;;
76131;SDS011;64877;50.994;13.650;2024-02-26T01:39:13;18.17;;;10.00;;
76131;SDS011;64877;50.994;13.650;2024-02-26T01:41:38;18.45;;;9.73;;
76131;SDS011;64877;50.994;13.650;2024-02-26T01:44:05;17.58;;;10.05;;
76131;SDS011;64877;50.994;13.650;2024-02-26T01:46:31;18.55;;;10.40;;
76131;SDS011;64877;50.994;13.650;2024-02-26T01:51:25;19.70;;;10.05;;
76131;SDS011;64877;50.994;13.650;2024-02-26T01:53:51;16.55;;;9.27;;
76131;SDS011;64877;50.994;13.650;2024-02-26T01:56:16;23.27;;;10.70;;
76131;SDS011;64877;50.994;13.650;2024-02-26T01:58:44;16.35;;;10.02;;
76131;SDS011;64877;50.994;13.650;2024-02-26T02:01:10;18.17;;;9.35;;
76131;SDS011;64877;50.994;13.650;2024-02-26T02:03:37;17.90;;;9.63;;
76131;SDS011;64877;50.994;13.650;2024-02-26T02:06:03;16.13;;;9.32;;
76131;SDS011;64877;50.994;13.650;2024-02-26T02:08:29;15.30;;;9.50;;
76131;SDS011;64877;50.994;13.650;2024-02-26T02:10:54;22.55;;;11.43;;
76131;SDS011;64877;50.994;13.650;2024-02-26T02:13:20;18.55;;;10.27;;
76131;SDS011;64877;50.994;13.650;2024-02-26T02:15:46;23.42;;;11.55;;
76131;SDS011;64877;50.994;13.650;2024-02-26T02:18:11;21.67;;;11.00;;
76131;SDS011;64877;50.994;13.650;2024-02-26T02:20:36;17.60;;;10.35;;
76131;SDS011;64877;50.994;13.650;2024-02-26T02:23:02;21.02;;;10.57;;
76131;SDS011;64877;50.994;13.650;2024-02-26T02:25:28;21.85;;;10.55;;
76131;SDS011;64877;50.994;13.650;2024-02-26T02:27:54;19.27;;;10.63;;
76131;SDS011;64877;50.994;13.650;2024-02-26T02:30:21;23.10;;;11.05;;
76131;SDS011;64877;50.994;13.650;2024-02-26T02:32:50;19.58;;;11.35;;
76131;SDS011;64877;50.994;13.650;2024-02-26T02:35:16;18.85;;;11.82;;
76131;SDS011;64877;50.994;13.650;2024-02-26T02:37:42;18.92;;;10.18;;
76131;SDS011;64877;50.994;13.650;2024-02-26T02:40:07;20.08;;;11.23;;
76131;SDS011;64877;50.994;13.650;2024-02-26T02:42:33;18.52;;;10.77;;
76131;SDS011;64877;50.994;13.650;2024-02-26T02:44:58;20.27;;;10.90;;
76131;SDS011;64877;50.994;13.650;2024-02-26T02:47:24;20.38;;;11.13;;
76131;SDS011;64877;50.994;13.650;2024-02-26T02:49:49;18.75;;;11.27;;
76131;SDS011;64877;50.994;13.650;2024-02-26T02:52:15;19.95;;;10.55;;
76131;SDS011;64877;50.994;13.650;2024-02-26T02:54:40;19.92;;;10.43;;
76131;SDS011;64877;50.994;13.650;2024-02-26T02:57:07;16.30;;;10.43;;
76131;SDS011;64877;50.994;13.650;2024-02-26T02:59:33;21.73;;;11.52;;
76131;SDS011;64877;50.994;13.650;2024-02-26T03:01:59;24.85;;;12.10;;
76131;SDS011;64877;50.994;13.650;2024-02-26T03:04:24;21.38;;;11.20;;
76131;SDS011;64877;50.994;13.650;2024-02-26T03:06:49;24.17;;;11.80;;
76131;SDS011;64877;50.994;13.650;2024-02-26T03:09:15;21.40;;;11.52;;
76131;SDS011;64877;50.994;13.650;2024-02-26T03:11:40;18.70;;;11.07;;
76131;SDS011;64877;50.994;13.650;2024-02-26T03:14:06;21.17;;;11.55;;
76131;SDS011;64877;50.994;13.650;2024-02-26T03:16:31;19.83;;;11.27;;
76131;SDS011;64877;50.994;13.650;2024-02-26T03:18:57;24.05;;;11.85;;
76131;SDS011;64877;50.994;13.650;2024-02-26T03:21:23;19.73;;;11.00;;
76131;SDS011;64877;50.994;13.650;2024-02-26T03:23:50;17.92;;;10.48;;
76131;SDS011;64877;50.994;13.650;2024-02-26T03:26:15;19.35;;;10.70;;
76131;SDS011;64877;50.994;13.650;2024-02-26T03:28:41;24.08;;;11.35;;
76131;SDS011;64877;50.994;13.650;2024-02-26T03:31:06;19.17;;;11.15;;
76131;SDS011;64877;50.994;13.650;2024-02-26T03:33:32;20.38;;;11.13;;
76131;SDS011;64877;50.994;13.650;2024-02-26T03:35:57;23.23;;;12.23;;
76131;SDS011;64877;50.994;13.650;2024-02-26T03:38:22;20.20;;;11.75;;
76131;SDS011;64877;50.994;13.650;2024-02-26T03:40:48;19.45;;;11.13;;
76131;SDS011;64877;50.994;13.650;2024-02-26T03:43:13;23.65;;;11.85;;
76131;SDS011;64877;50.994;13.650;2024-02-26T03:45:39;17.20;;;10.27;;
76131;SDS011;64877;50.994;13.650;2024-02-26T03:48:04;20.10;;;11.38;;
76131;SDS011;64877;50.994;13.650;2024-02-26T03:50:30;22.55;;;11.32;;
76131;SDS011;64877;50.994;13.650;2024-02-26T03:52:56;22.90;;;10.73;;
76131;SDS011;64877;50.994;13.650;2024-02-26T03:55:22;23.63;;;12.73;;
76131;SDS011;64877;50.994;13.650;2024-02-26T03:57:53;22.73;;;11.43;;
76131;SDS011;64877;50.994;13.650;2024-02-26T04:00:18;19.08;;;11.38;;
76131;SDS011;64877;50.994;13.650;2024-02-26T04:02:44;22.35;;;11.35;;
76131;SDS011;64877;50.994;13.650;2024-02-26T04:05:10;22.30;;;11.50;;
76131;SDS011;64877;50.994;13.650;2024-02-26T04:07:36;21.73;;;11.70;;
76131;SDS011;64877;50.994;13.650;2024-02-26T04:10:02;17.90;;;10.13;;
76131;SDS011;64877;50.994;13.650;2024-02-26T04:14:55;19.25;;;10.15;;
76131;SDS011;64877;50.994;13.650;2024-02-26T04:17:21;21.08;;;11.32;;
76131;SDS011;64877;50.994;13.650;2024-02-26T04:19:46;21.20;;;11.85;;
76131;SDS011;64877;50.994;13.650;2024-02-26T04:22:12;18.85;;;10.80;;
76131;SDS011;64877;50.994;13.650;2024-02-26T04:24:37;20.80;;;11.60;;
76131;SDS011;64877;50.994;13.650;2024-02-26T04:27:03;21.15;;;11.45;;
76131;SDS011;64877;50.994;13.650;2024-02-26T04:29:28;19.10;;;10.75;;
76131;SDS011;64877;50.994;13.650;2024-02-26T04:31:54;19.52;;;11.40;;
76131;SDS011;64877;50.994;13.650;2024-02-26T04:34:19;22.15;;;11.25;;
76131;SDS011;64877;50.994;13.650;2024-02-26T04:36:45;20.73;;;10.77;;
76131;SDS011;64877;50.994;13.650;2024-02-26T04:39:10;18.98;;;10.70;;
76131;SDS011;64877;50.994;13.650;2024-02-26T04:41:36;20.20;;;11.18;;
76131;SDS011;64877;50.994;13.650;2024-02-26T04:44:01;24.13;;;11.93;;
76131;SDS011;64877;50.994;13.650;2024-02-26T04:46:27;19.63;;;11.10;;
76131;SDS011;64877;50.994;13.650;2024-02-26T04:48:53;24.50;;;11.70;;
76131;SDS011;64877;50.994;13.650;2024-02-26T04:51:19;19.90;;;11.65;;
76131;SDS011;64877;50.994;13.650;2024-02-26T04:53:44;23.60;;;11.90;;
76131;SDS011;64877;50.994;13.650;2024-02-26T04:56:10;19.27;;;10.45;;
76131;SDS011;64877;50.994;13.650;2024-02-26T04:58:35;24.00;;;12.35;;
76131;SDS011;64877;50.994;13.650;2024-02-26T05:01:00;20.92;;;11.73;;
76131;SDS011;64877;50.994;13.650;2024-02-26T05:03:26;21.67;;;11.23;;
76131;SDS011;64877;50.994;13.650;2024-02-26T05:05:51;20.92;;;11.75;;
76131;SDS011;64877;50.994;13.650;2024-02-26T05:08:17;23.10;;;11.52;;
76131;SDS011;64877;50.994;13.650;2024-02-26T05:10:42;23.15;;;12.07;;
76131;SDS011;64877;50.994;13.650;2024-02-26T05:13:10;23.92;;;12.13;;
76131;SDS011;64877;50.994;13.650;2024-02-26T05:15:36;27.23;;;13.15;;
76131;SDS011;64877;50.994;13.650;2024-02-26T05:18:01;22.48;;;11.45;;
76131;SDS011;64877;50.994;13.650;2024-02-26T05:20:27;20.20;;;10.95;;
76131;SDS011;64877;50.994;13.650;2024-02-26T05:22:53;18.35;;;10.43;;
76131;SDS011;64877;50.994;13.650;2024-02-26T05:25:19;21.15;;;12.02;;
76131;SDS011;64877;50.994;13.650;2024-02-26T05:27:44;20.13;;;10.65;;
76131;SDS011;64877;50.994;13.650;2024-02-26T05:30:10;23.27;;;11.52;;
76131;SDS011;64877;50.994;13.650;2024-02-26T05:32:36;24.92;;;12.15;;
76131;SDS011;64877;50.994;13.650;2024-02-26T05:35:02;29.27;;;12.95;;
76131;SDS011;64877;50.994;13.650;2024-02-26T05:37:31;21.85;;;11.40;;
76131;SDS011;64877;50.994;13.650;2024-02-26T05:39:56;23.50;;;12.07;;
76131;SDS011;64877;50.994;13.650;2024-02-26T05:42:22;21.25;;;11.98;;
76131;SDS011;64877;50.994;13.650;2024-02-26T05:44:47;23.00;;;12.23;;
76131;SDS011;64877;50.994;13.650;2024-02-26T05:47:12;22.30;;;11.10;;
76131;SDS011;64877;50.994;13.650;2024-02-26T05:49:39;23.88;;;12.32;;
76131;SDS011;64877;50.994;13.650;2024-02-26T05:52:05;20.40;;;11.52;;
76131;SDS011;64877;50.994;13.650;2024-02-26T05:54:30;20.23;;;11.27;;
76131;SDS011;64877;50.994;13.650;2024-02-26T05:56:56;19.23;;;11.05;;
76131;SDS011;64877;50.994;13.650;2024-02-26T05:59:22;21.13;;;12.05;;
76131;SDS011;64877;50.994;13.650;2024-02-26T06:01:48;21.27;;;11.43;;
76131;SDS011;64877;50.994;13.650;2024-02-26T06:04:13;24.13;;;13.15;;
76131;SDS011;64877;50.994;13.650;2024-02-26T06:06:38;20.00;;;11.80;;
76131;SDS011;64877;50.994;13.650;2024-02-26T06:09:04;20.63;;;12.52;;
76131;SDS011;64877;50.994;13.650;2024-02-26T06:11:30;22.17;;;11.73;;
76131;SDS011;64877;50.994;13.650;2024-02-26T06:13:56;26.88;;;11.93;;
76131;SDS011;64877;50.994;13.650;2024-02-26T06:16:21;22.85;;;12.27;;
76131;SDS011;64877;50.994;13.650;2024-02-26T06:18:47;25.67;;;12.80;;
76131;SDS011;64877;50.994;13.650;2024-02-26T06:21:12;23.52;;;12.35;;
76131;SDS011;64877;50.994;13.650;2024-02-26T06:23:38;20.65;;;12.05;;
76131;SDS011;64877;50.994;13.650;2024-02-26T06:26:06;26.90;;;13.00;;
76131;SDS011;64877;50.994;13.650;2024-02-26T06:28:32;27.20;;;13.27;;
76131;SDS011;64877;50.994;13.650;2024-02-26T06:30:59;22.50;;;11.95;;
76131;SDS011;64877;50.994;13.650;2024-02-26T06:33:24;20.50;;;11.80;;
76131;SDS011;64877;50.994;13.650;2024-02-26T06:35:50;25.58;;;13.35;;
76131;SDS011;64877;50.994;13.650;2024-02-26T06:38:15;23.42;;;12.55;;
76131;SDS011;64877;50.994;13.650;2024-02-26T06:40:40;20.40;;;11.88;;
76131;SDS011;64877;50.994;13.650;2024-02-26T06:43:06;21.60;;;10.38;;
76131;SDS011;64877;50.994;13.650;2024-02-26T06:45:31;20.27;;;12.60;;
76131;SDS011;64877;50.994;13.650;2024-02-26T06:47:57;21.42;;;12.13;;
76131;SDS011;64877;50.994;13.650;2024-02-26T06:50:23;19.80;;;11.20;;
76131;SDS011;64877;50.994;13.650;2024-02-26T06:52:48;21.55;;;11.40;;
76131;SDS011;64877;50.994;13.650;2024-02-26T06:55:14;18.70;;;11.55;;
76131;SDS011;64877;50.994;13.650;2024-02-26T06:57:39;19.50;;;11.05;;
76131;SDS011;64877;50.994;13.650;2024-02-26T07:00:05;20.30;;;10.82;;
76131;SDS011;64877;50.994;13.650;2024-02-26T07:02:31;20.77;;;11.50;;
76131;SDS011;64877;50.994;13.650;2024-02-26T07:04:56;18.00;;;10.68;;
76131;SDS011;64877;50.994;13.650;2024-02-26T07:07:23;16.25;;;9.93;;
76131;SDS011;64877;50.994;13.650;2024-02-26T07:09:49;16.85;;;10.50;;
76131;SDS011;64877;50.994;13.650;2024-02-26T07:12:15;19.27;;;11.18;;
76131;SDS011;64877;50.994;13.650;2024-02-26T07:14:41;22.83;;;11.90;;
76131;SDS011;64877;50.994;13.650;2024-02-26T07:17:07;18.38;;;11.85;;
76131;SDS011;64877;50.994;13.650;2024-02-26T07:19:33;15.75;;;11.15;;
76131;SDS011;64877;50.994;13.650;2024-02-26T07:21:59;23.83;;;13.48;;
76131;SDS011;64877;50.994;13.650;2024-02-26T07:24:26;24.85;;;11.73;;
76131;SDS011;64877;50.994;13.650;2024-02-26T07:26:52;27.35;;;11.85;;
76131;SDS011;64877;50.994;13.650;2024-02-26T07:29:19;21.65;;;13.23;;
76131;SDS011;64877;50.994;13.650;2024-02-26T07:31:45;18.42;;;10.90;;
76131;SDS011;64877;50.994;13.650;2024-02-26T07:34:10;19.75;;;11.90;;
76131;SDS011;64877;50.994;13.650;2024-02-26T07:36:36;24.15;;;11.07;;
76131;SDS011;64877;50.994;13.650;2024-02-26T07:39:01;20.80;;;11.13;;
76131;SDS011;64877;50.994;13.650;2024-02-26T07:41:27;26.15;;;11.13;;
76131;SDS011;64877;50.994;13.650;2024-02-26T07:43:52;22.48;;;10.27;;
76131;SDS011;64877;50.994;13.650;2024-02-26T07:46:18;19.13;;;11.10;;
76131;SDS011;64877;50.994;13.650;2024-02-26T07:48:43;16.45;;;9.85;;
76131;SDS011;64877;50.994;13.650;2024-02-26T07:51:09;16.02;;;9.13;;
76131;SDS011;64877;50.994;13.650;2024-02-26T07:53:37;15.98;;;9.05;;
76131;SDS011;64877;50.994;13.650;2024-02-26T07:56:02;17.65;;;8.90;;
76131;SDS011;64877;50.994;13.650;2024-02-26T07:58:28;22.52;;;9.80;;
76131;SDS011;64877;50.994;13.650;2024-02-26T08:00:53;14.60;;;8.90;;
76131;SDS011;64877;50.994;13.650;2024-02-26T08:03:19;23.75;;;11.98;;
76131;SDS011;64877;50.994;13.650;2024-02-26T08:05:44;21.35;;;12.48;;
76131;SDS011;64877;50.994;13.650;2024-02-26T08:08:10;19.60;;;11.90;;
76131;SDS011;64877;50.994;13.650;2024-02-26T08:10:35;16.38;;;10.70;;
76131;SDS011;64877;50.994;13.650;2024-02-26T08:13:01;14.98;;;9.23;;
76131;SDS011;64877;50.994;13.650;2024-02-26T08:15:33;17.77;;;8.70;;
76131;SDS011;64877;50.994;13.650;2024-02-26T08:18:03;14.48;;;7.75;;
76131;SDS011;64877;50.994;13.650;2024-02-26T08:20:29;17.52;;;9.07;;
76131;SDS011;64877;50.994;13.650;2024-02-26T08:22:55;13.52;;;7.28;;
76131;SDS011;64877;50.994;13.650;2024-02-26T08:25:22;14.00;;;7.35;;
76131;SDS011;64877;50.994;13.650;2024-02-26T08:27:48;11.90;;;7.45;;
76131;SDS011;64877;50.994;13.650;2024-02-26T08:30:16;18.35;;;8.15;;
76131;SDS011;64877;50.994;13.650;2024-02-26T08:32:42;13.15;;;7.45;;
76131;SDS011;64877;50.994;13.650;2024-02-26T08:35:09;15.63;;;8.68;;
76131;SDS011;64877;50.994;13.650;2024-02-26T08:37:34;12.20;;;7.05;;
76131;SDS011;64877;50.994;13.650;2024-02-26T08:40:00;11.98;;;6.55;;
76131;SDS011;64877;50.994;13.650;2024-02-26T08:42:25;13.07;;;6.55;;
76131;SDS011;64877;50.994;13.650;2024-02-26T08:44:51;10.60;;;6.30;;
76131;SDS011;64877;50.994;13.650;2024-02-26T08:47:16;11.63;;;6.80;;
76131;SDS011;64877;50.994;13.650;2024-02-26T08:49:42;8.82;;;5.20;;
76131;SDS011;64877;50.994;13.650;2024-02-26T08:52:09;9.45;;;4.55;;
76131;SDS011;64877;50.994;13.650;2024-02-26T08:54:34;10.20;;;4.93;;
76131;SDS011;64877;50.994;13.650;2024-02-26T08:57:00;7.80;;;4.50;;
76131;SDS011;64877;50.994;13.650;2024-02-26T08:59:25;10.68;;;5.05;;
76131;SDS011;64877;50.994;13.650;2024-02-26T09:01:51;11.43;;;5.50;;
76131;SDS011;64877;50.994;13.650;2024-02-26T09:04:16;9.60;;;4.93;;
76131;SDS011;64877;50.994;13.650;2024-02-26T09:06:41;8.48;;;4.97;;
76131;SDS011;64877;50.994;13.650;2024-02-26T09:09:07;8.68;;;4.50;;
76131;SDS011;64877;50.994;13.650;2024-02-26T09:11:32;10.63;;;5.25;;
76131;SDS011;64877;50.994;13.650;2024-02-26T09:13:58;10.93;;;5.55;;
76131;SDS011;64877;50.994;13.650;2024-02-26T09:16:23;11.07;;;5.03;;
76131;SDS011;64877;50.994;13.650;2024-02-26T09:18:49;8.77;;;4.57;;
76131;SDS011;64877;50.994;13.650;2024-02-26T09:21:14;10.05;;;5.10;;
76131;SDS011;64877;50.994;13.650;2024-02-26T09:23:41;12.52;;;5.70;;
76131;SDS011;64877;50.994;13.650;2024-02-26T09:26:06;12.85;;;5.88;;
76131;SDS011;64877;50.994;13.650;2024-02-26T09:28:32;10.32;;;5.97;;
76131;SDS011;64877;50.994;13.650;2024-02-26T09:31:02;11.02;;;5.68;;
76131;SDS011;64877;50.994;13.650;2024-02-26T09:33:29;10.85;;;5.38;;
76131;SDS011;64877;50.994;13.650;2024-02-26T09:35:54;11.57;;;5.05;;
76131;SDS011;64877;50.994;13.650;2024-02-26T09:38:20;11.13;;;5.70;;
76131;SDS011;64877;50.994;13.650;2024-02-26T09:40:45;10.43;;;5.53;;
76131;SDS011;64877;50.994;13.650;2024-02-26T09:43:11;12.10;;;6.07;;
76131;SDS011;64877;50.994;13.650;2024-02-26T09:45:40;10.52;;;5.45;;
76131;SDS011;64877;50.994;13.650;2024-02-26T09:48:08;11.25;;;5.88;;
76131;SDS011;64877;50.994;13.650;2024-02-26T09:50:36;13.82;;;6.35;;
76131;SDS011;64877;50.994;13.650;2024-02-26T09:53:02;12.93;;;6.38;;
76131;SDS011;64877;50.994;13.650;2024-02-26T09:55:30;10.70;;;6.10;;
76131;SDS011;64877;50.994;13.650;2024-02-26T09:57:56;12.70;;;7.13;;
76131;SDS011;64877;50.994;13.650;2024-02-26T10:00:23;10.98;;;6.10;;
76131;SDS011;64877;50.994;13.650;2024-02-26T10:02:53;12.07;;;6.35;;
76131;SDS011;64877;50.994;13.650;2024-02-26T10:05:22;12.70;;;6.07;;
76131;SDS011;64877;50.994;13.650;2024-02-26T10:07:49;14.73;;;6.63;;
76131;SDS011;64877;50.994;13.650;2024-02-26T10:10:17;11.65;;;6.15;;
76131;SDS011;64877;50.994;13.650;2024-02-26T10:12:43;13.57;;;7.00;;
76131;SDS011;64877;50.994;13.650;2024-02-26T10:15:08;11.43;;;5.80;;
76131;SDS011;64877;50.994;13.650;2024-02-26T10:17:34;10.20;;;6.20;;
76131;SDS011;64877;50.994;13.650;2024-02-26T10:20:17;14.02;;;7.30;;
76131;SDS011;64877;50.994;13.650;2024-02-26T10:22:46;12.60;;;7.10;;
76131;SDS011;64877;50.994;13.650;2024-02-26T10:25:12;12.73;;;6.82;;
76131;SDS011;64877;50.994;13.650;2024-02-26T10:27:38;10.98;;;7.05;;
76131;SDS011;64877;50.994;13.650;2024-02-26T10:30:21;8.98;;;5.57;;
76131;SDS011;64877;50.994;13.650;2024-02-26T10:32:48;12.60;;;6.70;;
76131;SDS011;64877;50.994;13.650;2024-02-26T10:35:15;10.68;;;6.13;;
76131;SDS011;64877;50.994;13.650;2024-02-26T10:37:41;11.75;;;6.65;;
76131;SDS011;64877;50.994;13.650;2024-02-26T10:40:10;11.65;;;6.53;;
76131;SDS011;64877;50.994;13.650;2024-02-26T10:42:36;11.52;;;6.47;;
76131;SDS011;64877;50.994;13.650;2024-02-26T10:45:03;10.73;;;6.50;;
76131;SDS011;64877;50.994;13.650;2024-02-26T10:47:29;13.27;;;7.00;;
76131;SDS011;64877;50.994;13.650;2024-02-26T10:49:55;10.05;;;6.03;;
76131;SDS011;64877;50.994;13.650;2024-02-26T10:52:21;9.40;;;5.85;;
76131;SDS011;64877;50.994;13.650;2024-02-26T10:54:50;10.75;;;6.25;;
76131;SDS011;64877;50.994;13.650;2024-02-26T10:57:19;10.13;;;5.90;;
76131;SDS011;64877;50.994;13.650;2024-02-26T10:59:46;10.00;;;6.22;;
76131;SDS011;64877;50.994;13.650;2024-02-26T11:02:13;12.68;;;7.70;;
76131;SDS011;64877;50.994;13.650;2024-02-26T11:04:39;12.13;;;6.40;;
76131;SDS011;64877;50.994;13.650;2024-02-26T11:07:05;11.95;;;7.00;;
76131;SDS011;64877;50.994;13.650;2024-02-26T11:09:33;11.18;;;6.75;;
76131;SDS011;64877;50.994;13.650;2024-02-26T11:11:59;11.40;;;6.70;;
76131;SDS011;64877;50.994;13.650;2024-02-26T11:14:25;10.80;;;6.97;;
76131;SDS011;64877;50.994;13.650;2024-02-26T11:16:51;11.68;;;6.93;;
76131;SDS011;64877;50.994;13.650;2024-02-26T11:19:18;13.88;;;6.70;;
76131;SDS011;64877;50.994;13.650;2024-02-26T11:21:44;15.38;;;6.88;;
76131;SDS011;64877;50.994;13.650;2024-02-26T11:24:11;10.13;;;6.97;;
76131;SDS011;64877;50.994;13.650;2024-02-26T11:26:40;12.27;;;7.20;;
76131;SDS011;64877;50.994;13.650;2024-02-26T11:29:10;12.40;;;6.80;;
76131;SDS011;64877;50.994;13.650;2024-02-26T11:31:39;10.25;;;6.30;;
76131;SDS011;64877;50.994;13.650;2024-02-26T11:34:06;10.45;;;6.43;;
76131;SDS011;64877;50.994;13.650;2024-02-26T11:36:34;11.80;;;7.35;;
76131;SDS011;64877;50.994;13.650;2024-02-26T11:38:59;13.32;;;7.32;;
76131;SDS011;64877;50.994;13.650;2024-02-26T11:41:25;14.88;;;6.63;;
76131;SDS011;64877;50.994;13.650;2024-02-26T11:43:51;9.73;;;5.85;;
76131;SDS011;64877;50.994;13.650;2024-02-26T11:46:31;13.35;;;6.80;;
76131;SDS011;64877;50.994;13.650;2024-02-26T11:49:01;9.77;;;5.82;;
76131;SDS011;64877;50.994;13.650;2024-02-26T11:51:50;10.88;;;5.80;;
76131;SDS011;64877;50.994;13.650;2024-02-26T11:54:37;9.40;;;6.10;;
76131;SDS011;64877;50.994;13.650;2024-02-26T11:57:27;11.20;;;6.25;;
76131;SDS011;64877;50.994;13.650;2024-02-26T11:59:54;11.40;;;6.57;;
76131;SDS011;64877;50.994;13.650;2024-02-26T12:05:10;10.55;;;6.10;;
76131;SDS011;64877;50.994;13.650;2024-02-26T12:07:55;12.98;;;6.63;;
76131;SDS011;64877;50.994;13.650;2024-02-26T12:10:32;11.85;;;6.38;;
76131;SDS011;64877;50.994;13.650;2024-02-26T12:13:06;12.25;;;5.95;;
76131;SDS011;64877;50.994;13.650;2024-02-26T12:15:41;12.02;;;6.93;;
76131;SDS011;64877;50.994;13.650;2024-02-26T12:18:09;12.68;;;6.53;;
76131;SDS011;64877;50.994;13.650;2024-02-26T12:20:39;12.23;;;6.63;;
76131;SDS011;64877;50.994;13.650;2024-02-26T12:23:04;12.20;;;6.47;;
76131;SDS011;64877;50.994;13.650;2024-02-26T12:25:31;11.68;;;6.40;;
76131;SDS011;64877;50.994;13.650;2024-02-26T12:27:57;12.70;;;6.70;;
76131;SDS011;64877;50.994;13.650;2024-02-26T12:30:23;11.75;;;6.95;;
76131;SDS011;64877;50.994;13.650;2024-02-26T12:32:51;11.63;;;6.47;;
76131;SDS011;64877;50.994;13.650;2024-02-26T12:35:17;12.88;;;6.78;;
76131;SDS011;64877;50.994;13.650;2024-02-26T12:37:43;10.45;;;6.38;;
76131;SDS011;64877;50.994;13.650;2024-02-26T12:40:09;12.15;;;7.25;;
76131;SDS011;64877;50.994;13.650;2024-02-26T12:42:36;9.95;;;6.10;;
76131;SDS011;64877;50.994;13.650;2024-02-26T12:45:08;13.48;;;6.97;;
76131;SDS011;64877;50.994;13.650;2024-02-26T12:47:36;11.10;;;6.88;;
76131;SDS011;64877;50.994;13.650;2024-02-26T12:50:05;11.30;;;6.97;;
76131;SDS011;64877;50.994;13.650;2024-02-26T12:52:32;11.40;;;6.75;;
76131;SDS011;64877;50.994;13.650;2024-02-26T12:55:02;15.77;;;6.68;;
76131;SDS011;64877;50.994;13.650;2024-02-26T12:57:31;11.30;;;5.72;;
76131;SDS011;64877;50.994;13.650;2024-02-26T12:59:59;9.93;;;6.32;;
76131;SDS011;64877;50.994;13.650;2024-02-26T13:02:25;9.23;;;5.82;;
76131;SDS011;64877;50.994;13.650;2024-02-26T13:04:52;12.23;;;6.68;;
76131;SDS011;64877;50.994;13.650;2024-02-26T13:07:19;12.90;;;6.57;;
76131;SDS011;64877;50.994;13.650;2024-02-26T13:09:46;10.18;;;5.50;;
76131;SDS011;64877;50.994;13.650;2024-02-26T13:12:11;10.75;;;5.95;;
76131;SDS011;64877;50.994;13.650;2024-02-26T13:14:37;11.25;;;6.13;;
76131;SDS011;64877;50.994;13.650;2024-02-26T13:17:03;10.52;;;5.57;;
76131;SDS011;64877;50.994;13.650;2024-02-26T13:19:28;9.30;;;5.38;;
76131;SDS011;64877;50.994;13.650;2024-02-26T13:21:54;10.13;;;5.35;;
76131;SDS011;64877;50.994;13.650;2024-02-26T13:24:20;9.13;;;5.35;;
76131;SDS011;64877;50.994;13.650;2024-02-26T13:26:47;13.85;;;7.20;;
76131;SDS011;64877;50.994;13.650;2024-02-26T13:29:19;10.32;;;5.90;;
76131;SDS011;64877;50.994;13.650;2024-02-26T13:31:44;9.30;;;5.93;;
76131;SDS011;64877;50.994;13.650;2024-02-26T13:34:10;12.18;;;6.95;;
76131;SDS011;64877;50.994;13.650;2024-02-26T13:36:35;10.05;;;5.85;;
76131;SDS011;64877;50.994;13.650;2024-02-26T13:39:01;10.80;;;5.97;;
76131;SDS011;64877;50.994;13.650;2024-02-26T13:41:29;10.15;;;6.47;;
76131;SDS011;64877;50.994;13.650;2024-02-26T13:43:55;11.88;;;5.35;;
76131;SDS011;64877;50.994;13.650;2024-02-26T13:46:20;13.45;;;7.15;;
76131;SDS011;64877;50.994;13.650;2024-02-26T13:48:46;10.73;;;6.43;;
76131;SDS011;64877;50.994;13.650;2024-02-26T13:51:11;10.98;;;6.65;;
76131;SDS011;64877;50.994;13.650;2024-02-26T13:53:37;12.88;;;6.43;;
76131;SDS011;64877;50.994;13.650;2024-02-26T13:56:02;10.70;;;6.32;;
76131;SDS011;64877;50.994;13.650;2024-02-26T13:58:30;11.25;;;6.22;;
76131;SDS011;64877;50.994;13.650;2024-02-26T14:00:56;10.65;;;6.72;;
76131;SDS011;64877;50.994;13.650;2024-02-26T14:03:21;9.55;;;6.30;;
76131;SDS011;64877;50.994;13.650;2024-02-26T14:05:47;12.13;;;6.13;;
76131;SDS011;64877;50.994;13.650;2024-02-26T14:08:12;13.10;;;6.55;;
76131;SDS011;64877;50.994;13.650;2024-02-26T14:10:38;10.65;;;6.18;;
76131;SDS011;64877;50.994;13.650;2024-02-26T14:13:03;12.20;;;6.35;;
76131;SDS011;64877;50.994;13.650;2024-02-26T14:15:29;11.65;;;5.82;;
76131;SDS011;64877;50.994;13.650;2024-02-26T14:17:54;10.65;;;5.75;;
76131;SDS011;64877;50.994;13.650;2024-02-26T14:20:24;13.10;;;6.18;;